createdAt,value
2023-04-24T00:02:00.649Z,0.60
2023-04-24T00:04:27.736Z,0.70
2023-04-24T00:06:58.374Z,0.60
2023-04-24T00:09:25.367Z,0.85
2023-04-24T00:11:53.648Z,0.70
2023-04-24T00:14:20.610Z,0.60
2023-04-24T00:16:47.440Z,0.77
2023-04-24T00:19:14.290Z,0.63
2023-04-24T00:21:42.585Z,1.10
2023-04-24T00:24:10.187Z,0.70
2023-04-24T00:26:37.048Z,0.70
2023-04-24T00:29:03.890Z,0.50
2023-04-24T00:31:30.878Z,0.65
2023-04-24T00:33:58.708Z,0.60
2023-04-24T00:36:26.063Z,0.70
2023-04-24T00:38:52.850Z,0.30
2023-04-24T00:41:20.026Z,0.50
2023-04-24T00:43:47.163Z,0.60
2023-04-24T00:46:14.804Z,0.75
2023-04-24T00:48:41.737Z,0.43
2023-04-24T00:51:08.931Z,0.82
2023-04-24T00:53:35.876Z,0.68
2023-04-24T00:56:04.127Z,0.50
2023-04-24T00:58:32.201Z,0.75
2023-04-24T01:01:02.023Z,0.50
2023-04-24T01:03:32.818Z,0.80
2023-04-24T01:06:00.600Z,0.50
2023-04-24T01:08:29.280Z,0.55
2023-04-24T01:10:57.979Z,0.70
2023-04-24T01:13:25.192Z,0.50
2023-04-24T01:15:52.247Z,0.60
2023-04-24T01:18:19.131Z,0.70
2023-04-24T01:20:47.713Z,0.70
2023-04-24T01:23:14.861Z,0.60
2023-04-24T01:25:41.789Z,0.80
2023-04-24T01:28:08.930Z,0.60
2023-04-24T01:30:35.815Z,0.70
2023-04-24T01:33:03.642Z,0.70
2023-04-24T01:35:30.639Z,0.75
2023-04-24T01:37:57.543Z,0.75
2023-04-24T01:40:24.471Z,0.50
2023-04-24T01:42:52.068Z,0.77
2023-04-24T01:45:19.053Z,0.50
2023-04-24T01:47:47.268Z,0.73
2023-04-24T01:50:14.330Z,0.70
2023-04-24T01:52:41.220Z,0.80
2023-04-24T01:55:08.933Z,0.75
2023-04-24T01:57:36.652Z,0.70
2023-04-24T02:00:05.734Z,0.47
2023-04-24T02:02:32.922Z,0.45
2023-04-24T02:04:59.997Z,0.68
2023-04-24T02:07:26.835Z,0.60
2023-04-24T02:09:53.695Z,0.65
2023-04-24T02:12:20.601Z,0.75
2023-04-24T02:14:47.467Z,0.55
2023-04-24T02:17:16.466Z,0.85
2023-04-24T02:19:43.605Z,1.13
2023-04-24T02:22:11.595Z,0.80
2023-04-24T02:24:39.377Z,0.73
2023-04-24T02:27:07.184Z,0.57
2023-04-24T02:29:34.503Z,0.50
2023-04-24T02:32:01.367Z,0.70
2023-04-24T02:34:28.280Z,0.70
2023-04-24T02:36:55.194Z,0.85
2023-04-24T02:39:22.197Z,0.73
2023-04-24T02:41:49.068Z,0.60
2023-04-24T02:44:15.986Z,0.55
2023-04-24T02:46:43.004Z,0.70
2023-04-24T02:49:09.898Z,0.47
2023-04-24T02:51:39.134Z,0.50
2023-04-24T02:54:06.041Z,0.60
2023-04-24T02:56:32.854Z,0.50
2023-04-24T02:58:59.619Z,0.60
2023-04-24T03:01:26.924Z,0.90
2023-04-24T03:03:53.958Z,0.63
2023-04-24T03:06:21.976Z,1.10
2023-04-24T03:08:48.784Z,0.65
2023-04-24T03:11:15.611Z,0.68
2023-04-24T03:13:42.438Z,0.60
2023-04-24T03:16:09.393Z,0.52
2023-04-24T03:18:36.188Z,0.50
2023-04-24T03:21:04.465Z,0.70
2023-04-24T03:23:31.343Z,0.70
2023-04-24T03:25:58.171Z,0.60
2023-04-24T03:28:26.071Z,0.70
2023-04-24T03:30:53.157Z,0.70
2023-04-24T03:33:19.978Z,0.45
2023-04-24T03:35:46.862Z,0.75
2023-04-24T03:38:13.677Z,0.70
2023-04-24T03:40:40.589Z,1.00
2023-04-24T03:43:07.491Z,0.95
2023-04-24T03:45:34.304Z,1.00
2023-04-24T03:48:01.116Z,1.38
2023-04-24T03:50:28.245Z,1.40
2023-04-24T03:52:55.002Z,1.42
2023-04-24T03:55:21.832Z,1.45
2023-04-24T03:57:48.623Z,1.40
2023-04-24T04:00:16.093Z,1.42
2023-04-24T04:02:43.070Z,1.67
2023-04-24T04:05:10.458Z,1.30
2023-04-24T04:07:37.356Z,1.75
2023-04-24T04:10:04.978Z,1.90
2023-04-24T04:12:31.762Z,2.15
2023-04-24T04:14:58.573Z,2.33
2023-04-24T04:17:25.440Z,2.10
2023-04-24T04:19:52.249Z,2.15
2023-04-24T04:22:19.049Z,2.30
2023-04-24T04:24:47.207Z,2.20
2023-04-24T04:27:14.350Z,2.60
2023-04-24T04:29:41.408Z,2.60
2023-04-24T04:32:08.672Z,2.50
2023-04-24T04:34:35.605Z,3.65
2023-04-24T04:37:03.202Z,3.35
2023-04-24T04:39:30.926Z,3.55
2023-04-24T04:41:57.828Z,3.42
2023-04-24T04:44:24.715Z,3.15
2023-04-24T04:46:54.233Z,3.35
2023-04-24T04:49:22.579Z,3.13
2023-04-24T04:51:49.581Z,3.15
2023-04-24T04:54:16.788Z,3.45
2023-04-24T04:56:43.690Z,3.97
2023-04-24T04:59:10.545Z,3.30
2023-04-24T05:01:37.887Z,3.50
2023-04-24T05:04:04.834Z,3.67
2023-04-24T05:06:31.965Z,3.83
2023-04-24T05:08:58.777Z,3.40
2023-04-24T05:11:25.641Z,3.58
2023-04-24T05:13:52.421Z,3.75
2023-04-24T05:16:19.303Z,3.83
2023-04-24T05:18:46.137Z,3.53
2023-04-24T05:21:13.140Z,3.97
2023-04-24T05:23:40.004Z,3.30
2023-04-24T05:26:07.934Z,3.45
2023-04-24T05:28:37.422Z,3.28
2023-04-24T05:31:04.533Z,3.45
2023-04-24T05:33:31.779Z,3.40
2023-04-24T05:35:58.705Z,2.95
2023-04-24T05:38:25.558Z,3.45
2023-04-24T05:40:52.510Z,3.30
2023-04-24T05:43:19.385Z,3.13
2023-04-24T05:45:46.232Z,3.08
2023-04-24T05:48:13.031Z,3.20
2023-04-24T05:50:39.867Z,2.95
2023-04-24T05:53:08.124Z,3.05
2023-04-24T05:55:35.139Z,3.50
2023-04-24T05:58:01.904Z,2.97
2023-04-24T06:00:29.801Z,3.47
2023-04-24T06:02:57.169Z,2.95
2023-04-24T06:05:24.516Z,3.17
2023-04-24T06:07:51.779Z,3.20
2023-04-24T06:10:18.716Z,3.00
2023-04-24T06:12:45.937Z,3.20
2023-04-24T06:15:12.754Z,3.05
2023-04-24T06:17:39.656Z,2.80
2023-04-24T06:20:09.096Z,3.00
2023-04-24T06:22:36.425Z,3.40
2023-04-24T06:25:03.708Z,3.22
2023-04-24T06:27:30.538Z,2.92
2023-04-24T06:29:57.343Z,2.90
2023-04-24T06:32:25.530Z,3.10
2023-04-24T06:34:53.734Z,2.65
2023-04-24T06:37:22.237Z,2.60
2023-04-24T06:39:49.140Z,2.53
2023-04-24T06:42:16.493Z,2.90
2023-04-24T06:44:43.829Z,7.78
2023-04-24T06:47:11.555Z,2.78
2023-04-24T06:49:39.109Z,2.85
2023-04-24T06:52:06.813Z,2.70
2023-04-24T06:54:34.090Z,2.60
2023-04-24T06:57:04.569Z,2.63
2023-04-24T06:59:31.661Z,2.22
2023-04-24T07:01:58.822Z,2.42
2023-04-24T07:04:26.333Z,2.40
2023-04-24T07:06:57.049Z,2.85
2023-04-24T07:09:27.741Z,2.10
2023-04-24T07:11:55.006Z,2.17
2023-04-24T07:14:22.166Z,2.13
2023-04-24T07:16:49.542Z,2.10
2023-04-24T07:19:16.402Z,2.15
2023-04-24T07:21:43.243Z,2.30
2023-04-24T07:24:12.564Z,2.00
2023-04-24T07:26:42.513Z,2.40
2023-04-24T07:29:09.405Z,2.33
2023-04-24T07:31:36.323Z,2.13
2023-04-24T07:34:03.274Z,2.50
2023-04-24T07:36:30.218Z,2.35
2023-04-24T07:38:59.722Z,2.78
2023-04-24T07:41:26.664Z,2.40
2023-04-24T07:43:54.867Z,2.63
2023-04-24T07:46:22.232Z,2.47
2023-04-24T07:48:58.614Z,2.50
2023-04-24T07:51:28.980Z,2.20
2023-04-24T07:53:55.976Z,2.05
2023-04-24T07:56:23.239Z,2.28
2023-04-24T07:58:50.073Z,2.15
2023-04-24T08:01:17.122Z,1.90
2023-04-24T08:03:44.188Z,1.90
2023-04-24T08:06:11.290Z,1.80
2023-04-24T08:08:38.155Z,1.95
2023-04-24T08:11:05.130Z,1.58
2023-04-24T08:13:32.142Z,1.88
2023-04-24T08:15:58.979Z,1.92
2023-04-24T08:18:25.956Z,1.50
2023-04-24T08:20:52.918Z,1.60
2023-04-24T08:23:19.733Z,1.60
2023-04-24T08:25:46.582Z,1.70
2023-04-24T08:28:15.974Z,1.70
2023-04-24T08:30:43.971Z,1.45
2023-04-24T08:33:10.777Z,1.50
2023-04-24T08:35:38.071Z,1.33
2023-04-24T08:38:04.877Z,1.40
2023-04-24T08:40:36.065Z,1.30
2023-04-24T08:43:04.251Z,1.30
2023-04-24T08:45:31.352Z,1.35
2023-04-24T08:47:59.397Z,1.10
2023-04-24T08:50:26.722Z,1.40
2023-04-24T08:52:54.570Z,1.27
2023-04-24T08:55:22.293Z,1.58
2023-04-24T08:57:54.614Z,1.60
2023-04-24T09:00:22.386Z,1.70
2023-04-24T09:02:51.338Z,1.75
2023-04-24T09:05:21.956Z,1.80
2023-04-24T09:07:55.237Z,1.67
2023-04-24T09:10:27.287Z,1.85
2023-04-24T09:12:55.212Z,1.90
2023-04-24T09:15:22.496Z,2.00
2023-04-24T09:17:49.374Z,1.55
2023-04-24T09:20:16.506Z,1.50
2023-04-24T09:22:44.617Z,1.70
2023-04-24T09:25:13.704Z,1.58
2023-04-24T09:27:45.958Z,2.00
2023-04-24T09:30:13.703Z,1.55
2023-04-24T09:32:42.371Z,1.95
2023-04-24T09:35:15.856Z,1.80
2023-04-24T09:37:47.668Z,1.83
2023-04-24T09:40:24.518Z,1.83
2023-04-24T09:43:01.926Z,1.58
2023-04-24T09:45:40.673Z,1.70
2023-04-24T09:48:12.120Z,1.58
2023-04-24T09:50:39.075Z,1.65
2023-04-24T09:53:11.694Z,1.58
2023-04-24T09:55:47.324Z,1.50
2023-04-24T09:58:14.254Z,1.80
2023-04-24T10:00:41.351Z,1.50
2023-04-24T10:03:09.294Z,1.77
2023-04-24T10:05:37.910Z,1.50
2023-04-24T10:08:11.424Z,1.80
2023-04-24T10:10:46.038Z,1.63
2023-04-24T10:15:43.419Z,1.48
2023-04-24T10:18:11.670Z,1.42
2023-04-24T10:20:41.540Z,1.60
2023-04-24T10:23:08.910Z,1.67
2023-04-24T10:25:40.699Z,1.40
2023-04-24T10:28:09.769Z,1.50
2023-04-24T10:30:38.305Z,1.38
2023-04-24T10:33:08.908Z,1.83
2023-04-24T10:35:42.675Z,1.60
2023-04-24T10:38:14.355Z,1.70
2023-04-24T10:40:41.474Z,1.90
2023-04-24T10:43:12.072Z,1.60
2023-04-24T10:45:40.227Z,2.00
2023-04-24T10:48:14.704Z,1.83
2023-04-24T10:53:24.658Z,1.75
2023-04-24T10:56:10.512Z,1.80
2023-04-24T10:58:47.130Z,1.40
2023-04-24T11:01:29.613Z,1.80
2023-04-24T11:04:04.792Z,1.92
2023-04-24T11:06:41.880Z,2.25
2023-04-24T11:09:16.359Z,1.88
2023-04-24T11:11:47.979Z,2.22
2023-04-24T11:14:18.208Z,2.40
2023-04-24T11:16:52.373Z,2.40
2023-04-24T11:19:25.944Z,2.40
2023-04-24T11:22:02.329Z,2.72
2023-04-24T11:24:51.887Z,2.47
2023-04-24T11:27:21.786Z,2.47
2023-04-24T11:30:00.879Z,2.13
2023-04-24T11:32:33.683Z,2.15
2023-04-24T11:35:26.234Z,2.15
2023-04-24T11:40:26.438Z,2.03
2023-04-24T11:42:57.454Z,1.92
2023-04-24T11:45:29.906Z,1.88
2023-04-24T11:47:59.812Z,1.85
2023-04-24T11:50:29.480Z,1.60
2023-04-24T11:52:57.322Z,1.85
2023-04-24T11:55:28.375Z,1.98
2023-04-24T11:57:58.953Z,1.60
2023-04-24T12:00:35.494Z,2.00
2023-04-24T12:03:11.518Z,2.33
2023-04-24T12:05:40.141Z,1.80
2023-04-24T12:08:07.681Z,1.88
2023-04-24T12:10:35.955Z,1.90
2023-04-24T12:13:03.634Z,1.95
2023-04-24T12:15:30.764Z,2.33
2023-04-24T12:17:58.670Z,2.35
2023-04-24T12:20:29.634Z,2.60
2023-04-24T12:23:02.186Z,2.30
2023-04-24T12:25:30.801Z,2.42
2023-04-24T12:28:06.901Z,2.63
2023-04-24T12:30:49.963Z,2.70
2023-04-24T12:33:21.403Z,2.58
2023-04-24T12:35:54.364Z,3.00
2023-04-24T12:38:26.914Z,3.20
2023-04-24T12:41:08.464Z,3.00
2023-04-24T12:43:36.529Z,3.50
2023-04-24T12:46:04.307Z,3.28
2023-04-24T12:48:31.804Z,3.05
2023-04-24T12:51:02.450Z,3.35
2023-04-24T12:53:30.771Z,3.05
2023-04-24T12:55:57.908Z,3.30
2023-04-24T12:58:25.652Z,2.83
2023-04-24T13:00:52.616Z,3.15
2023-04-24T13:03:20.260Z,2.85
2023-04-24T13:05:48.336Z,2.83
2023-04-24T13:08:15.250Z,2.47
2023-04-24T13:10:42.314Z,2.90
2023-04-24T13:13:09.981Z,3.10
2023-04-24T13:15:36.904Z,2.92
2023-04-24T13:18:03.919Z,3.05
2023-04-24T13:20:31.244Z,2.58
2023-04-24T13:22:58.083Z,3.50
2023-04-24T13:25:25.969Z,2.72
2023-04-24T13:27:52.830Z,3.03
2023-04-24T13:30:19.673Z,3.00
2023-04-24T13:32:46.526Z,2.70
2023-04-24T13:35:13.564Z,3.20
2023-04-24T13:37:40.361Z,2.53
2023-04-24T13:40:08.224Z,2.80
2023-04-24T13:42:35.824Z,2.63
2023-04-24T13:45:13.841Z,2.67
2023-04-24T13:47:51.854Z,2.53
2023-04-24T13:50:19.352Z,2.40
2023-04-24T13:52:46.179Z,2.55
2023-04-24T13:55:13.150Z,2.75
2023-04-24T13:57:40.012Z,2.92
2023-04-24T14:00:11.584Z,2.83
2023-04-24T14:02:38.972Z,2.75
2023-04-24T14:05:07.435Z,2.28
2023-04-24T14:07:34.233Z,2.58
2023-04-24T14:10:01.340Z,2.58
2023-04-24T14:12:28.504Z,2.80
2023-04-24T14:14:55.397Z,3.10
2023-04-24T14:17:22.462Z,2.83
2023-04-24T14:19:49.826Z,2.70
2023-04-24T14:22:17.610Z,2.80
2023-04-24T14:24:44.540Z,2.95
2023-04-24T14:27:11.349Z,3.00
2023-04-24T14:29:38.200Z,2.75
2023-04-24T14:32:05.046Z,2.83
2023-04-24T14:34:31.880Z,2.80
2023-04-24T14:36:59.760Z,3.88
2023-04-24T14:39:26.643Z,3.03
2023-04-24T14:41:53.485Z,3.10
2023-04-24T14:44:20.253Z,3.45
2023-04-24T14:46:47.187Z,2.97
2023-04-24T14:49:14.025Z,2.40
2023-04-24T14:51:41.740Z,2.80
2023-04-24T14:54:08.662Z,2.70
2023-04-24T14:56:36.239Z,2.80
2023-04-24T14:59:03.633Z,2.60
2023-04-24T15:01:31.147Z,2.67
2023-04-24T15:03:58.001Z,2.55
2023-04-24T15:06:25.907Z,2.65
2023-04-24T15:08:52.707Z,3.10
2023-04-24T15:11:19.540Z,2.83
2023-04-24T15:13:46.675Z,2.60
2023-04-24T15:16:14.139Z,2.65
2023-04-24T15:18:41.081Z,2.72
2023-04-24T15:21:07.948Z,2.42
2023-04-24T15:23:34.872Z,2.30
2023-04-24T15:26:02.572Z,2.10
2023-04-24T15:28:29.369Z,2.50
2023-04-24T15:30:56.186Z,2.13
2023-04-24T15:33:23.247Z,2.85
2023-04-24T15:35:50.666Z,2.30
2023-04-24T15:38:17.462Z,2.20
2023-04-24T15:40:45.581Z,2.38
2023-04-24T15:43:12.371Z,2.22
2023-04-24T15:45:39.275Z,2.28
2023-04-24T15:48:06.668Z,2.00
2023-04-24T15:50:33.590Z,2.45
2023-04-24T15:53:00.437Z,2.30
2023-04-24T15:55:28.851Z,2.35
2023-04-24T15:57:55.765Z,2.13
2023-04-24T16:00:23.238Z,2.10
2023-04-24T16:02:51.596Z,2.20
2023-04-24T16:05:20.686Z,2.22
2023-04-24T16:07:47.477Z,2.20
2023-04-24T16:10:14.266Z,1.92
2023-04-24T16:12:41.239Z,2.35
2023-04-24T16:15:08.708Z,1.73
2023-04-24T16:17:35.654Z,1.80
2023-04-24T16:20:07.466Z,2.03
2023-04-24T16:22:34.290Z,1.73
2023-04-24T16:25:01.258Z,1.67
2023-04-24T16:27:28.102Z,1.40
2023-04-24T16:29:57.012Z,1.48
2023-04-24T16:32:24.088Z,1.50
2023-04-24T16:34:51.254Z,1.55
2023-04-24T16:37:20.327Z,1.50
2023-04-24T16:39:47.536Z,1.63
2023-04-24T16:42:16.139Z,1.70
2023-04-24T16:44:43.485Z,1.70
2023-04-24T16:47:14.132Z,1.65
2023-04-24T16:49:41.911Z,1.80
2023-04-24T16:52:09.360Z,1.90
2023-04-24T16:54:36.303Z,2.17
2023-04-24T16:57:04.564Z,2.33
2023-04-24T16:59:33.937Z,2.03
2023-04-24T17:02:03.931Z,2.47
2023-04-24T17:04:32.294Z,2.40
2023-04-24T17:06:59.310Z,2.30
2023-04-24T17:09:26.149Z,2.25
2023-04-24T17:11:52.996Z,2.00
2023-04-24T17:14:19.858Z,2.30
2023-04-24T17:16:46.699Z,1.92
2023-04-24T17:19:13.524Z,1.92
2023-04-24T17:21:40.277Z,2.15
2023-04-24T17:24:07.259Z,2.10
2023-04-24T17:26:34.472Z,2.00
2023-04-24T17:29:02.152Z,2.10
2023-04-24T17:31:29.135Z,2.05
2023-04-24T17:33:56.280Z,2.00
2023-04-24T17:36:23.172Z,2.10
2023-04-24T17:38:50.288Z,2.10
2023-04-24T17:41:17.790Z,2.10
2023-04-24T17:43:45.799Z,2.20
2023-04-24T17:46:13.300Z,2.03
2023-04-24T17:48:40.522Z,2.17
2023-04-24T17:51:07.415Z,2.35
2023-04-24T17:53:34.266Z,2.30
2023-04-24T17:56:03.294Z,2.38
2023-04-24T17:58:31.134Z,2.22
2023-04-24T18:00:57.992Z,2.35
2023-04-24T18:03:25.028Z,2.30
2023-04-24T18:05:52.039Z,2.17
2023-04-24T18:08:18.885Z,2.50
2023-04-24T18:10:45.971Z,2.65
2023-04-24T18:13:13.251Z,2.40
2023-04-24T18:15:43.711Z,2.60
2023-04-24T18:18:11.726Z,2.20
2023-04-24T18:20:39.414Z,2.38
2023-04-24T18:23:06.469Z,2.38
2023-04-24T18:25:33.403Z,1.98
2023-04-24T18:28:00.398Z,1.95
2023-04-24T18:30:28.201Z,2.05
2023-04-24T18:32:56.034Z,2.20
2023-04-24T18:35:23.828Z,2.10
2023-04-24T18:37:52.057Z,2.17
2023-04-24T18:40:18.974Z,2.30
2023-04-24T18:42:46.100Z,2.30
2023-04-24T18:45:15.261Z,2.00
2023-04-24T18:47:43.621Z,2.00
2023-04-24T18:50:11.595Z,1.77
2023-04-24T18:52:38.464Z,2.00
2023-04-24T18:55:06.881Z,2.00
2023-04-24T18:57:33.975Z,1.90
2023-04-24T19:00:00.920Z,1.92
2023-04-24T19:02:28.055Z,2.00
2023-04-24T19:04:55.343Z,2.17
2023-04-24T19:07:22.163Z,2.10
2023-04-24T19:09:49.067Z,2.38
2023-04-24T19:12:16.012Z,2.50
2023-04-24T19:14:42.877Z,2.63
2023-04-24T19:17:10.940Z,2.10
2023-04-24T19:19:38.005Z,2.10
2023-04-24T19:22:05.345Z,2.20
2023-04-24T19:24:33.603Z,2.10
2023-04-24T19:27:01.563Z,2.60
2023-04-24T19:29:28.524Z,2.10
2023-04-24T19:31:57.754Z,2.00
2023-04-24T19:34:26.183Z,2.40
2023-04-24T19:36:53.500Z,3.40
2023-04-24T19:39:20.466Z,2.38
2023-04-24T19:41:47.692Z,1.80
2023-04-24T19:44:15.678Z,2.25
2023-04-24T19:46:43.362Z,2.20
2023-04-24T19:49:10.369Z,2.03
2023-04-24T19:51:37.735Z,2.28
2023-04-24T19:54:06.259Z,2.65
2023-04-24T19:56:33.484Z,2.10
2023-04-24T19:59:00.996Z,2.30
2023-04-24T20:01:28.046Z,2.50
2023-04-24T20:03:55.205Z,2.28
2023-04-24T20:06:22.161Z,2.40
2023-04-24T20:08:49.368Z,2.42
2023-04-24T20:11:17.180Z,2.13
2023-04-24T20:13:44.019Z,2.20
2023-04-24T20:16:11.613Z,2.50
2023-04-24T20:18:38.608Z,2.42
2023-04-24T20:21:05.553Z,2.08
2023-04-24T20:23:32.351Z,2.40
2023-04-24T20:25:59.341Z,2.75
2023-04-24T20:28:27.817Z,2.67
2023-04-24T20:30:54.955Z,2.60
2023-04-24T20:33:22.098Z,2.25
2023-04-24T20:35:49.713Z,2.53
2023-04-24T20:38:18.488Z,2.60
2023-04-24T20:40:57.292Z,2.30
2023-04-24T20:43:28.747Z,2.17
2023-04-24T20:45:58.086Z,2.20
2023-04-24T20:48:26.529Z,2.65
2023-04-24T20:50:53.985Z,2.42
2023-04-24T20:53:21.183Z,2.45
2023-04-24T20:55:48.884Z,2.20
2023-04-24T20:58:18.254Z,2.30
2023-04-24T21:00:45.734Z,2.08
2023-04-24T21:03:12.684Z,2.05
2023-04-24T21:05:39.600Z,2.28
2023-04-24T21:08:06.508Z,2.40
2023-04-24T21:10:33.451Z,2.10
2023-04-24T21:13:01.161Z,2.08
2023-04-24T21:15:28.445Z,1.90
2023-04-24T21:17:55.413Z,2.17
2023-04-24T21:20:22.506Z,2.15
2023-04-24T21:22:49.337Z,2.47
2023-04-24T21:25:16.411Z,2.28
2023-04-24T21:27:43.386Z,2.25
2023-04-24T21:30:11.270Z,2.50
2023-04-24T21:32:40.489Z,2.20
2023-04-24T21:35:08.791Z,2.30
2023-04-24T21:37:37.775Z,2.40
2023-04-24T21:40:05.198Z,1.85
2023-04-24T21:42:32.232Z,2.33
2023-04-24T21:44:59.068Z,2.38
2023-04-24T21:47:25.939Z,2.30
2023-04-24T21:49:52.795Z,2.20
2023-04-24T21:52:20.123Z,2.28
2023-04-24T21:54:46.974Z,2.40
2023-04-24T21:57:13.850Z,2.08
2023-04-24T21:59:40.964Z,2.10
2023-04-24T22:02:07.924Z,2.53
2023-04-24T22:04:34.987Z,2.17
2023-04-24T22:07:01.893Z,2.40
2023-04-24T22:09:28.774Z,2.03
2023-04-24T22:11:55.739Z,2.15
2023-04-24T22:14:22.598Z,1.83
2023-04-24T22:16:50.269Z,2.05
2023-04-24T22:19:17.201Z,2.42
2023-04-24T22:21:44.049Z,2.20
2023-04-24T22:24:10.887Z,2.00
2023-04-24T22:26:37.741Z,2.15
2023-04-24T22:29:04.634Z,2.50
2023-04-24T22:31:31.773Z,2.40
2023-04-24T22:33:58.644Z,2.40
2023-04-24T22:36:26.238Z,2.20
2023-04-24T22:38:53.134Z,2.75
2023-04-24T22:41:20.125Z,2.28
2023-04-24T22:43:47.209Z,3.05
2023-04-24T22:46:14.252Z,2.95
2023-04-24T22:48:41.190Z,2.80
2023-04-24T22:51:08.338Z,2.80
2023-04-24T22:53:36.630Z,2.80
2023-04-24T22:56:03.674Z,2.60
2023-04-24T22:58:30.692Z,2.42
2023-04-24T23:00:57.520Z,2.47
2023-04-24T23:03:24.578Z,2.45
2023-04-24T23:05:51.532Z,2.30
2023-04-24T23:08:18.418Z,3.17
2023-04-24T23:10:45.298Z,2.50
2023-04-24T23:13:12.369Z,2.75
2023-04-24T23:15:39.479Z,2.80
2023-04-24T23:18:06.548Z,2.45
2023-04-24T23:20:33.576Z,2.58
2023-04-24T23:23:00.960Z,3.13
2023-04-24T23:25:27.799Z,2.97
2023-04-24T23:27:54.592Z,3.17
2023-04-24T23:30:21.581Z,2.83
2023-04-24T23:32:48.392Z,2.80
2023-04-24T23:35:15.458Z,3.22
2023-04-24T23:37:42.611Z,3.40
2023-04-24T23:40:10.558Z,3.83
2023-04-24T23:42:37.408Z,2.78
2023-04-24T23:45:04.946Z,3.40
2023-04-24T23:47:31.786Z,3.33
2023-04-24T23:49:58.679Z,3.38
2023-04-24T23:52:25.511Z,3.28
2023-04-24T23:54:52.433Z,3.20
2023-04-24T23:57:19.571Z,3.05
2023-04-24T23:59:46.376Z,3.42
